Darstellungsparameter: Aktuell verwendete Einstellungen:
Skalierung der Graphiken ... ?
xyx+y,   Skalierungsfaktor:      Skalierung: Modus: x, Faktor: 1
Darstellungszeitraum ... ?
Vom - - bis: - -   Zeitraum: 29.09.2006 - 29.09.2006
Min/Max/Avg-Anzeige ... ?
Zeige MMA aktuell
Zeige MMA Monat
Zeige MMA alles
Zeige --A aktuell
Zeige --A Monat
Zeige --A alles
Keine MMA-Anzeige
MMA:
Average (ber die Originaldaten)
MMA-Basis: 29.09.2006 - 29.09.2006
Quicknavigation für Darstellung... ?
Tage:      1T, 2T, 3T, 5T -1T -2T -3T -5T +1T +2T +3T +5T
Wochen: 1W, 2W, 3W -1W -2W -3W +1W +2W +3W
Monate: 1M, 3M, 6M -1M -3M -6M +1M +3M +6M
Jahre:    1J, 3J, 5J, 10J -1J -3J -5J -10J +1J +3J +5J +10J
Nutze für die Darstellung ... ?
Originaldaten oder Mittelwerte auf ...
Stundenbasis Tagesbasis Wochenbasis
Monatsbasis Jahresbasis      Datenbasis: Original-Daten
Darstellen als:
Statistik (Auto) Statistik J:M      Darstellung:
Zur Graphik,    zurück zur Übersicht aller Sensoren.
 
Tabellarische Datenbersicht: ?
 
Sensor: Nr:Datum:Temp:Abs-Feuchte:Windchill:Wind:
Aussen-T/F 1 29-09-2006 00:06:02 15.1 C 10.45 g/m*3 15.1 C 0 km/h
2 29-09-2006 00:16:02 15.2 C 10.51 g/m*3 15.2 C 0 km/h
3 29-09-2006 00:26:02 15 C 10.26 g/m*3 15 C 0 km/h
4 29-09-2006 00:36:02 14.8 C 10.26 g/m*3 14.8 C 0 km/h
5 29-09-2006 00:46:03 14.7 C 10.2 g/m*3 14.7 C 0 km/h
6 29-09-2006 00:56:03 14.6 C 10.26 g/m*3 14.6 C 0 km/h
7 29-09-2006 01:06:02 14.4 C 10.14 g/m*3 14.4 C 0 km/h
8 29-09-2006 01:16:02 14.3 C 10.07 g/m*3 14.3 C 0 km/h
9 29-09-2006 01:26:02 14.1 C 10.07 g/m*3 14.1 C 0 km/h
10 29-09-2006 01:36:02 14 C 10.01 g/m*3 14 C 0 km/h
11 29-09-2006 01:46:03 13.9 C 10.07 g/m*3 13.9 C 0 km/h
12 29-09-2006 01:56:03 13.8 C 10.13 g/m*3 13.8 C 0 km/h
13 29-09-2006 02:06:02 13.7 C 10.07 g/m*3 13.7 C 0 km/h
14 29-09-2006 02:16:02 13.7 C 10.18 g/m*3 13.7 C 0 km/h
15 29-09-2006 02:26:02 13.8 C 10.37 g/m*3 13.8 C 0 km/h
16 29-09-2006 02:36:03 13.8 C 10.37 g/m*3 13.8 C 0 km/h
17 29-09-2006 02:47:04 13.7 C 10.3 g/m*3 13.7 C 0 km/h
18 29-09-2006 02:57:04 13.5 C 10.18 g/m*3 13.5 C 0 km/h
19 29-09-2006 03:07:04 13.5 C 10.18 g/m*3 13.5 C 0 km/h
20 29-09-2006 03:17:04 13.5 C 10.18 g/m*3 13.5 C 0 km/h
21 29-09-2006 03:27:04 13.5 C 10.18 g/m*3 13.5 C 0 km/h
22 29-09-2006 03:37:03 13.4 C 10.11 g/m*3 13.4 C 0 km/h
23 29-09-2006 03:47:03 13.3 C 10.05 g/m*3 13.3 C 0 km/h
24 29-09-2006 03:57:03 13.3 C 10.05 g/m*3 13.3 C 0 km/h
25 29-09-2006 04:07:02 13.3 C 10.05 g/m*3 13.3 C 0 km/h
Sensor: Nr:Datum:Temp:Abs-Feuchte:Windchill:Wind:
Aussen-T/F 26 29-09-2006 04:17:03 13.3 C 10.05 g/m*3 13.3 C 0 km/h
27 29-09-2006 04:27:03 13.3 C 10.17 g/m*3 13.3 C 0 km/h
28 29-09-2006 04:37:03 13.4 C 10.23 g/m*3 13.4 C 0 km/h
29 29-09-2006 04:47:02 13.4 C 10.23 g/m*3 13.4 C 0 km/h
30 29-09-2006 04:57:02 13.4 C 10.23 g/m*3 13.4 C 0 km/h
31 29-09-2006 05:07:02 13.4 C 10.23 g/m*3 13.4 C 0 km/h
32 29-09-2006 05:17:02 13.4 C 10.23 g/m*3 13.4 C 0 km/h
33 29-09-2006 05:27:03 13.3 C 10.17 g/m*3 13.3 C 0 km/h
34 29-09-2006 05:37:02 13.2 C 10.1 g/m*3 13.2 C 0 km/h
35 29-09-2006 05:47:01 13 C 9.98 g/m*3 13 C 0 km/h
36 29-09-2006 05:57:01 12.8 C 9.97 g/m*3 12.8 C 0 km/h
37 29-09-2006 06:07:01 12.8 C 9.97 g/m*3 12.8 C 0 km/h
38 29-09-2006 06:17:02 12.8 C 9.97 g/m*3 12.8 C 0 km/h
39 29-09-2006 06:27:02 12.9 C 10.14 g/m*3 12.9 C 0 km/h
40 29-09-2006 06:37:02 12.7 C 10.02 g/m*3 12.7 C 0 km/h
41 29-09-2006 06:47:02 12.7 C 10.02 g/m*3 12.7 C 0 km/h
42 29-09-2006 06:57:02 12.5 C 9.89 g/m*3 12.5 C 0 km/h
43 29-09-2006 07:07:02 12.3 C 9.77 g/m*3 12.3 C 0 km/h
44 29-09-2006 07:17:02 12.3 C 9.77 g/m*3 12.3 C 0 km/h
45 29-09-2006 07:27:02 12.2 C 9.82 g/m*3 12.2 C 0 km/h
46 29-09-2006 07:37:02 12.2 C 9.82 g/m*3 12.2 C 0 km/h
47 29-09-2006 07:47:02 12.2 C 9.82 g/m*3 12.2 C 0 km/h
48 29-09-2006 07:57:02 12.4 C 9.94 g/m*3 12.4 C 0 km/h
49 29-09-2006 08:07:02 12.5 C 10 g/m*3 12.5 C 0 km/h
50 29-09-2006 08:17:01 12.8 C 10.3 g/m*3 12.8 C 0 km/h
Sensor: Nr:Datum:Temp:Abs-Feuchte:Windchill:Wind:
Aussen-T/F 51 29-09-2006 08:27:01 12.9 C 10.37 g/m*3 12.9 C 0 km/h
52 29-09-2006 08:37:01 13 C 10.32 g/m*3 13 C 0 km/h
53 29-09-2006 08:47:02 13.1 C 10.27 g/m*3 13.1 C 0 km/h
54 29-09-2006 08:57:02 13.2 C 10.33 g/m*3 13.2 C 0 km/h
55 29-09-2006 09:07:02 13.4 C 10.46 g/m*3 13.4 C 0 km/h
56 29-09-2006 09:17:02 13.6 C 10.47 g/m*3 13.6 C 0 km/h
57 29-09-2006 09:27:03 13.8 C 10.48 g/m*3 13.8 C 0 km/h
58 29-09-2006 09:37:02 13.9 C 10.43 g/m*3 13.9 C 0 km/h
59 29-09-2006 09:47:04 14.1 C 10.32 g/m*3 14.1 C 0 km/h
60 29-09-2006 09:57:04 14.1 C 10.32 g/m*3 14.1 C 0 km/h
61 29-09-2006 10:07:03 14.1 C 10.32 g/m*3 14.1 C 0 km/h
62 29-09-2006 10:17:02 14.5 C 10.57 g/m*3 14.5 C 0 km/h
63 29-09-2006 10:27:02 14.7 C 10.58 g/m*3 14.7 C 0 km/h
64 29-09-2006 10:37:03 15 C 10.64 g/m*3 15 C 0 km/h
65 29-09-2006 10:47:02 15.6 C 11.04 g/m*3 15.6 C 0 km/h
66 29-09-2006 10:57:02 16.1 C 10.97 g/m*3 16.1 C 0 km/h
67 29-09-2006 11:07:02 16.8 C 11.29 g/m*3 16.8 C 0 km/h
68 29-09-2006 11:17:02 17.3 C 11.34 g/m*3 17.3 C 0 km/h
69 29-09-2006 11:27:02 17.5 C 11.18 g/m*3 17.5 C 0 km/h
70 29-09-2006 11:37:02 18 C 11.06 g/m*3 18 C 0 km/h
71 29-09-2006 11:47:02 18.4 C 11.17 g/m*3 18.4 C 0 km/h
72 29-09-2006 11:57:02 19 C 11.08 g/m*3 19 C 0 km/h
73 29-09-2006 12:07:02 19.4 C 11.18 g/m*3 19.4 C 0 km/h
74 29-09-2006 12:17:01 19.6 C 10.64 g/m*3 19.6 C 0 km/h
75 29-09-2006 12:27:01 20.3 C 10.38 g/m*3 20.3 C 0 km/h
Sensor: Nr:Datum:Temp:Abs-Feuchte:Windchill:Wind:
Aussen-T/F 76 29-09-2006 12:37:01 20.6 C 10.56 g/m*3 20.6 C 0 km/h
77 29-09-2006 12:47:02 20.4 C 10.44 g/m*3 20.4 C 0 km/h
78 29-09-2006 12:57:02 20.7 C 11.16 g/m*3 20.7 C 0 km/h
79 29-09-2006 13:07:02 21.3 C 10.25 g/m*3 21.3 C 0 km/h
80 29-09-2006 13:17:01 22 C 10.29 g/m*3 22 C 0 km/h
81 29-09-2006 13:27:01 22.4 C 10.13 g/m*3 22.4 C 0 km/h
82 29-09-2006 13:37:01 22.2 C 10.01 g/m*3 22.2 C 0 km/h
83 29-09-2006 13:47:02 22.6 C 10.65 g/m*3 22.6 C 0 km/h
84 29-09-2006 13:57:03 22.9 C 10.42 g/m*3 22.9 C 0 km/h
85 29-09-2006 14:07:02 23 C 10.48 g/m*3 23 C 0 km/h
86 29-09-2006 14:17:03 23.2 C 10.6 g/m*3 23.2 C 0 km/h
87 29-09-2006 14:27:03 23.6 C 10 g/m*3 23.6 C 0 km/h
88 29-09-2006 14:37:02 23.2 C 10.19 g/m*3 23.2 C 0 km/h
89 29-09-2006 14:47:02 23.4 C 10.72 g/m*3 23.4 C 0 km/h
90 29-09-2006 14:57:02 23.1 C 10.34 g/m*3 23.1 C 0 km/h
91 29-09-2006 15:07:03 23 C 10.07 g/m*3 23 C 0 km/h
92 29-09-2006 15:17:03 23.2 C 9.77 g/m*3 23.2 C 0 km/h
93 29-09-2006 15:27:04 23.1 C 9.72 g/m*3 23.1 C 0 km/h
94 29-09-2006 15:37:02 23.2 C 9.56 g/m*3 23.2 C 0 km/h
95 29-09-2006 15:47:02 24 C 9.57 g/m*3 24 C 0 km/h
96 29-09-2006 15:57:02 23.8 C 9.9 g/m*3 23.8 C 0 km/h
97 29-09-2006 16:07:02 23.8 C 9.9 g/m*3 23.8 C 0 km/h
98 29-09-2006 16:17:03 23.7 C 9.63 g/m*3 23.7 C 0 km/h
99 29-09-2006 16:27:03 23.7 C 10.05 g/m*3 23.7 C 0 km/h
100 29-09-2006 16:37:03 23.8 C 9.9 g/m*3 23.8 C 0 km/h
Sensor: Nr:Datum:Temp:Abs-Feuchte:Windchill:Wind:
Aussen-T/F 101 29-09-2006 16:47:02 23.7 C 10.27 g/m*3 23.7 C 0 km/h
102 29-09-2006 16:57:02 23.5 C 10.15 g/m*3 23.5 C 0 km/h
103 29-09-2006 17:07:03 24.1 C 10.28 g/m*3 24.1 C 0 km/h
104 29-09-2006 17:17:01 24.7 C 9.96 g/m*3 24.7 C 0 km/h
105 29-09-2006 17:27:01 24.6 C 9.9 g/m*3 24.6 C 0 km/h
106 29-09-2006 17:37:02 23.9 C 10.17 g/m*3 23.9 C 0 km/h
107 29-09-2006 17:47:02 24 C 10.23 g/m*3 24 C 0 km/h
108 29-09-2006 17:57:02 23.8 C 10.54 g/m*3 23.8 C 0 km/h
109 29-09-2006 18:07:02 23.4 C 10.93 g/m*3 23.4 C 0 km/h
110 29-09-2006 18:17:02 23 C 10.69 g/m*3 23 C 0 km/h
111 29-09-2006 18:27:02 22.2 C 10.41 g/m*3 22.2 C 0 km/h
112 29-09-2006 18:37:02 21.8 C 10.55 g/m*3 21.8 C 0 km/h
113 29-09-2006 18:47:02 21.4 C 10.5 g/m*3 21.4 C 0 km/h
114 29-09-2006 18:57:02 20.8 C 10.68 g/m*3 20.8 C 0 km/h
115 29-09-2006 19:07:02 20.4 C 10.61 g/m*3 20.4 C 0 km/h
116 29-09-2006 19:17:02 19.8 C 10.76 g/m*3 19.8 C 0 km/h
117 29-09-2006 19:27:02 19.5 C 10.74 g/m*3 19.5 C 0 km/h
118 29-09-2006 19:37:03 19.2 C 10.72 g/m*3 19.2 C 0 km/h
119 29-09-2006 19:47:02 18.8 C 10.95 g/m*3 18.8 C 0 km/h
120 29-09-2006 19:57:02 18.6 C 10.98 g/m*3 18.6 C 0 km/h
121 29-09-2006 20:07:02 18.4 C 10.85 g/m*3 18.4 C 0 km/h
122 29-09-2006 20:17:02 18.3 C 10.79 g/m*3 18.3 C 0 km/h
123 29-09-2006 20:27:02 18.3 C 10.79 g/m*3 18.3 C 0 km/h
124 29-09-2006 20:37:03 18.2 C 10.88 g/m*3 18.2 C 0 km/h
125 29-09-2006 20:47:02 18.2 C 10.88 g/m*3 18.2 C 0 km/h
Sensor: Nr:Datum:Temp:Abs-Feuchte:Windchill:Wind:
Aussen-T/F 126 29-09-2006 20:57:02 18.1 C 10.82 g/m*3 18.1 C 0 km/h
127 29-09-2006 21:07:02 18.1 C 10.82 g/m*3 18.1 C 0 km/h
128 29-09-2006 21:17:02 17.9 C 10.84 g/m*3 17.9 C 0 km/h
129 29-09-2006 21:27:02 17.7 C 10.86 g/m*3 17.7 C 0 km/h
130 29-09-2006 21:37:03 17.6 C 10.8 g/m*3 17.6 C 0 km/h
131 29-09-2006 21:47:02 17.5 C 10.73 g/m*3 17.5 C 0 km/h
132 29-09-2006 21:57:02 17.4 C 10.82 g/m*3 17.4 C 0 km/h
133 29-09-2006 22:07:02 17.5 C 10.88 g/m*3 17.5 C 0 km/h
134 29-09-2006 22:17:02 17.6 C 10.8 g/m*3 17.6 C 0 km/h
135 29-09-2006 22:27:02 17.8 C 11.08 g/m*3 17.8 C 0 km/h
136 29-09-2006 22:37:03 17.3 C 10.75 g/m*3 17.3 C 0 km/h
137 29-09-2006 22:47:02 17.2 C 10.69 g/m*3 17.2 C 0 km/h
138 29-09-2006 22:57:02 17.2 C 10.84 g/m*3 17.2 C 0 km/h
139 29-09-2006 23:07:02 17.2 C 10.84 g/m*3 17.2 C 0 km/h
140 29-09-2006 23:17:02 17 C 10.71 g/m*3 17 C 0 km/h
141 29-09-2006 23:27:02 16.8 C 10.72 g/m*3 16.8 C 0 km/h
142 29-09-2006 23:37:03 16.8 C 10.87 g/m*3 16.8 C 0 km/h
143 29-09-2006 23:47:02 16.7 C 10.94 g/m*3 16.7 C 0 km/h
144 29-09-2006 23:57:02 16.4 C 10.75 g/m*3 16.4 C 0 km/h

Legende:
   Min
   Max


Maximal/Minimal-Werte vom 29.09.2006 - 29.09.2006

Sensor Min Max Avg
Temp
(Aussen-T/F)
12.2 °C
29-09-2006  07:27:02
24.7 °C
29-09-2006  17:17:01
17.33 °C
Abs-Feuchte
(Aussen-T/F)
9.56 g/m*3
29-09-2006  15:37:02
11.34 g/m*3
29-09-2006  11:17:02
10.32 g/m*3
Windchill
(Aussen-T/F)
12.2 C
29-09-2006  07:27:02
24.7 C
29-09-2006  17:17:01
17.21 C

Die Daten stammen von einer Davis Vantage Pro 2 Wetter-Station und werden unter Linux mit der Software wview2wettercgi und aufbereitet. Alle Angaben erfolgen ohne Gewähr für ihre Vollständigkeit oder Richtigkeit.
Kontakt: Rainer Krienke krienke@uni-koblenz.de . Meine Webseiten an der Uni Koblenz oder privat.
Version: $Revision: 0.78 $